Time;durP1;ratioP1;P1;durP2;ratioP2;P2;SDS_P1;SDS_P2;PMS_P1;PMS_P2;Temp;Humidity;BMP_temperature;BMP_pressure;BME280_temperature;BME280_humidity;BME280_pressure;Samples;Min_cycle;Max_cycle;Signal;HPM_P1;HPM_P2
2023/06/28 00:01:17;;;;;;;6.45;2.85;;;;;;;20.29;50.16;101817.44;4967410;28;117842;-73
2023/06/28 00:03:45;;;;;;;5.35;2.90;;;;;;;20.29;50.34;101817.44;4968161;28;123740;-74
2023/06/28 00:06:12;;;;;;;5.20;2.83;;;;;;;20.29;50.28;101822.81;4964804;28;123961;-74
2023/06/28 00:08:40;;;;;;;6.65;2.92;;;;;;;20.28;50.45;101815.69;4986346;28;119872;-74
2023/06/28 00:11:08;;;;;;;7.22;3.00;;;;;;;20.29;50.66;101817.44;4986571;28;119497;-74
2023/06/28 00:13:36;;;;;;;3.53;2.85;;;;;;;20.29;50.63;101812.06;4968659;28;124758;-74
2023/06/28 00:16:04;;;;;;;4.35;2.60;;;;;;;20.28;50.51;101820.22;4986911;28;124110;-74
2023/06/28 00:18:33;;;;;;;5.00;2.92;;;;;;;20.26;50.57;101828.41;4987386;28;120202;-74
2023/06/28 00:21:02;;;;;;;4.95;2.78;;;;;;;20.23;50.91;101823.25;4996711;28;119737;-74
2023/06/28 00:23:32;;;;;;;5.25;2.97;;;;;;;20.22;51.00;101826.91;4999389;28;124256;-74
2023/06/28 00:25:59;;;;;;;5.97;3.03;;;;;;;20.21;51.15;101825.16;4985649;28;124656;-74
2023/06/28 00:28:26;;;;;;;5.95;2.88;;;;;;;20.20;51.22;101827.00;4998874;28;119115;-74
2023/06/28 00:30:54;;;;;;;5.38;2.97;;;;;;;20.20;51.36;101823.47;4985024;28;119357;-74
2023/06/28 00:33:21;;;;;;;7.18;2.63;;;;;;;20.21;51.22;101825.16;4985146;28;124906;-75
2023/06/28 00:35:48;;;;;;;6.00;3.00;;;;;;;20.20;51.39;101824.31;4977709;28;124070;-74
2023/06/28 00:38:16;;;;;;;5.28;3.03;;;;;;;20.20;51.35;101821.63;4989761;28;119091;-74
2023/06/28 00:40:43;;;;;;;5.72;3.15;;;;;;;20.20;51.71;101826.16;4970936;28;118876;-74
2023/06/28 00:43:12;;;;;;;5.53;3.10;;;;;;;20.19;51.65;101821.72;4988467;28;124502;-74
2023/06/28 00:45:39;;;;;;;4.57;3.33;;;;;;;20.18;51.87;101825.41;4971017;28;123933;-74
2023/06/28 00:48:06;;;;;;;7.63;3.45;;;;;;;20.18;51.76;101825.41;4984390;28;118275;-74
2023/06/28 00:50:36;;;;;;;6.55;3.42;;;;;;;20.18;52.05;101830.78;4989114;28;118094;-73
2023/06/28 00:53:04;;;;;;;7.25;3.35;;;;;;;20.18;52.19;101830.78;4989066;28;123889;-74
2023/06/28 00:55:32;;;;;;;5.55;2.95;;;;;;;20.17;52.31;101829.03;5001352;28;123969;-74
2023/06/28 00:58:00;;;;;;;6.75;3.10;;;;;;;20.16;52.47;101822.81;4989518;28;119001;-74
2023/06/28 01:00:28;;;;;;;6.90;3.25;;;;;;;20.16;52.43;101816.56;4971068;28;118470;-74
2023/06/28 01:02:55;;;;;;;7.22;3.22;;;;;;;20.16;52.52;101822.81;4954617;28;122937;-74
2023/06/28 01:05:23;;;;;;;8.02;3.45;;;;;;;20.16;52.72;101832.72;4977581;28;124196;-74
2023/06/28 01:07:52;;;;;;;7.95;3.70;;;;;;;20.15;52.78;101831.84;4993882;28;120941;-73
2023/06/28 01:10:19;;;;;;;7.00;3.53;;;;;;;20.16;52.93;101827.34;4989389;28;120586;-73
2023/06/28 01:12:47;;;;;;;5.32;3.63;;;;;;;20.17;53.18;101823.66;4990603;28;124119;-74
2023/06/28 01:15:15;;;;;;;5.43;3.42;;;;;;;20.17;53.13;101823.66;4989584;28;124264;-74
2023/06/28 01:17:43;;;;;;;5.20;3.70;;;;;;;20.17;53.23;101820.97;4970299;28;119348;-74
2023/06/28 01:20:10;;;;;;;6.22;3.53;;;;;;;20.17;53.43;101823.66;4979086;28;118305;-74
2023/06/28 01:22:41;;;;;;;10.60;3.90;;;;;;;20.18;53.31;101814.63;4988894;28;124278;-74
2023/06/28 01:25:10;;;;;;;6.05;3.60;;;;;;;20.19;53.43;101821.72;4986640;28;124709;-74
2023/06/28 01:27:44;;;;;;;7.22;3.70;;;;;;;20.19;53.58;101801.09;4969995;28;118770;-74
2023/06/28 01:30:14;;;;;;;5.33;3.47;;;;;;;20.22;53.52;101810.75;4970328;28;118292;-74
2023/06/28 01:32:43;;;;;;;7.00;3.60;;;;;;;20.22;53.59;101806.22;4987801;28;123953;-74
2023/06/28 01:35:11;;;;;;;7.70;3.85;;;;;;;20.24;53.52;101808.81;4986381;28;124404;-74
2023/06/28 01:37:39;;;;;;;5.60;3.53;;;;;;;20.27;53.54;101807.72;4970160;28;117513;-74
2023/06/28 01:40:11;;;;;;;8.15;3.65;;;;;;;20.27;53.69;101814.00;4970654;28;118095;-74
2023/06/28 01:42:39;;;;;;;6.60;3.58;;;;;;;20.28;53.44;101821.06;4987385;28;124081;-74
2023/06/28 01:45:07;;;;;;;7.15;3.90;;;;;;;20.29;53.54;101817.44;4987597;28;124757;-74
2023/06/28 01:47:35;;;;;;;7.32;3.88;;;;;;;20.31;53.67;101814.66;4970401;28;119635;-74
2023/06/28 01:50:02;;;;;;;5.80;3.72;;;;;;;20.31;53.71;101815.50;4986411;28;118171;-73
2023/06/28 01:52:30;;;;;;;5.97;4.00;;;;;;;20.32;53.66;101813.66;4987615;28;124811;-74
2023/06/28 01:54:59;;;;;;;7.03;4.07;;;;;;;20.34;53.75;101815.28;4975499;28;122377;-74
2023/06/28 01:57:27;;;;;;;7.35;3.45;;;;;;;20.34;53.84;101819.78;4988007;28;120459;-74
2023/06/28 01:59:54;;;;;;;5.72;3.90;;;;;;;20.35;53.73;101817.00;4968994;28;119276;-74
2023/06/28 02:02:22;;;;;;;6.88;4.03;;;;;;;20.37;53.77;101819.56;4974671;28;123148;-75
2023/06/28 02:04:49;;;;;;;5.22;3.67;;;;;;;20.38;53.63;101822.16;4969204;28;122976;-74
2023/06/28 02:07:17;;;;;;;6.90;4.03;;;;;;;20.39;53.28;101815.78;4969626;28;118981;-74
2023/06/28 02:09:44;;;;;;;7.22;3.92;;;;;;;20.42;53.57;101822.81;4971207;28;118281;-75
2023/06/28 02:12:12;;;;;;;6.45;3.70;;;;;;;20.41;53.57;101821.94;5006791;28;124444;-74
2023/06/28 02:14:39;;;;;;;5.40;3.38;;;;;;;20.42;53.66;101822.81;4970240;28;124900;-75
2023/06/28 02:17:13;;;;;;;7.07;3.95;;;;;;;20.41;53.85;101821.06;4988140;28;118173;-74
2023/06/28 02:19:41;;;;;;;8.00;4.07;;;;;;;20.40;53.88;101820.22;4975161;28;119220;-75
2023/06/28 02:22:08;;;;;;;7.43;4.13;;;;;;;20.41;53.86;101819.25;4968640;28;123063;-74
2023/06/28 02:24:36;;;;;;;7.05;4.20;;;;;;;20.40;54.10;101820.22;4987235;28;124155;-75
2023/06/28 02:27:04;;;;;;;6.47;4.15;;;;;;;20.38;54.35;101816.78;4997149;28;119611;-75
2023/06/28 02:29:31;;;;;;;6.63;4.80;;;;;;;20.38;54.05;101822.16;4990273;28;118791;-76
2023/06/28 02:31:59;;;;;;;9.13;4.75;;;;;;;20.38;54.21;101816.78;4986564;28;124212;-75
2023/06/28 02:34:27;;;;;;;7.70;4.68;;;;;;;20.39;54.30;101813.09;4986844;28;124305;-75
2023/06/28 02:36:55;;;;;;;8.45;4.55;;;;;;;20.39;54.37;101817.63;4987657;28;119056;-75
2023/06/28 02:39:22;;;;;;;6.07;4.40;;;;;;;20.37;54.47;101815.06;4969531;28;118631;-75
2023/06/28 02:41:50;;;;;;;7.63;4.68;;;;;;;20.36;54.59;101807.97;4968829;28;122720;-75
2023/06/28 02:44:17;;;;;;;7.82;3.92;;;;;;;20.34;54.48;101814.41;4968836;28;123502;-75
2023/06/28 02:46:45;;;;;;;5.72;4.57;;;;;;;20.27;54.35;101811.31;4968857;28;121365;-75
2023/06/28 02:49:13;;;;;;;8.90;4.65;;;;;;;20.20;54.34;101808.19;4969077;28;119483;-75
2023/06/28 02:51:40;;;;;;;8.70;4.75;;;;;;;20.14;54.44;101813.13;4968452;28;122199;-75
2023/06/28 02:54:11;;;;;;;7.38;4.45;;;;;;;20.09;54.56;101809.91;4958172;28;124923;-75
2023/06/28 02:56:38;;;;;;;7.35;4.50;;;;;;;20.06;54.49;101815.47;4987030;28;119624;-75
2023/06/28 02:59:23;;;;;;;7.57;4.40;;;;;;;19.98;54.37;101808.81;4969135;28;119033;-76
2023/06/28 03:01:54;;;;;;;7.35;4.30;;;;;;;19.91;54.73;101812.91;4968092;28;124937;-75
2023/06/28 03:04:21;;;;;;;5.28;4.35;;;;;;;19.84;54.64;101811.59;4968983;28;123122;-75
2023/06/28 03:06:49;;;;;;;9.05;4.82;;;;;;;19.78;54.69;101809.34;4968967;28;120182;-76
2023/06/28 03:09:17;;;;;;;7.15;4.20;;;;;;;19.74;54.59;101807.81;4969140;28;117323;-75
2023/06/28 03:11:44;;;;;;;7.82;4.00;;;;;;;19.70;54.82;101809.81;4968158;28;124092;-76
2023/06/28 03:14:12;;;;;;;8.57;4.22;;;;;;;19.69;55.14;101804.56;4969902;28;97310;-75
2023/06/28 03:16:40;;;;;;;7.18;4.28;;;;;;;19.68;55.12;101805.53;4969118;28;118774;-76
2023/06/28 03:19:09;;;;;;;8.25;4.25;;;;;;;19.67;55.10;101793.06;4969696;28;119808;-75
2023/06/28 03:21:37;;;;;;;5.38;3.90;;;;;;;19.68;55.23;101805.53;4966596;28;126191;-75
2023/06/28 03:24:05;;;;;;;5.72;4.03;;;;;;;19.67;55.17;101803.81;4961805;28;123500;-75
2023/06/28 03:26:33;;;;;;;7.07;4.28;;;;;;;19.67;55.46;101803.81;4988624;28;119530;-75
2023/06/28 03:29:00;;;;;;;6.30;4.03;;;;;;;19.68;55.63;101800.16;4995145;28;117229;-76
2023/06/28 03:31:31;;;;;;;9.00;4.13;;;;;;;19.68;55.54;101800.16;4967386;28;123476;-75
2023/06/28 03:34:00;;;;;;;7.88;4.22;;;;;;;19.68;55.46;101794.78;4967046;28;123890;-76
2023/06/28 03:36:29;;;;;;;5.93;4.03;;;;;;;19.67;55.40;101793.06;4966311;28;121230;-75
2023/06/28 03:38:56;;;;;;;6.30;4.13;;;;;;;19.63;55.41;101792.41;4966901;28;120058;-75
2023/06/28 03:41:27;;;;;;;8.88;4.68;;;;;;;19.62;55.39;101796.91;4966761;28;123640;-74
2023/06/28 03:43:54;;;;;;;6.75;4.28;;;;;;;19.61;55.36;101792.50;4981930;28;123858;-75
2023/06/28 03:46:22;;;;;;;6.75;4.28;;;;;;;19.60;55.67;101793.47;4968423;28;118801;-74
2023/06/28 03:48:49;;;;;;;8.93;4.47;;;;;;;19.60;55.97;101792.59;4967916;28;119717;-75
2023/06/28 03:51:17;;;;;;;6.20;4.32;;;;;;;19.60;55.69;101798.84;4967612;28;123720;-77
2023/06/28 03:53:44;;;;;;;8.73;4.40;;;;;;;19.59;55.83;101797.13;4967054;28;123337;-75
2023/06/28 03:56:11;;;;;;;8.38;4.57;;;;;;;19.57;56.00;101799.06;4984157;28;118417;-74
2023/06/28 03:58:38;;;;;;;7.63;4.82;;;;;;;19.57;55.98;101793.69;4967111;28;119261;-75
2023/06/28 04:01:09;;;;;;;8.75;4.60;;;;;;;19.57;56.10;101792.81;4983121;28;123948;-75
2023/06/28 04:03:36;;;;;;;8.10;4.82;;;;;;;19.53;55.99;101791.28;4971439;28;124906;-75
2023/06/28 04:06:05;;;;;;;8.63;4.80;;;;;;;19.50;56.27;101787.00;4993694;28;119647;-75
2023/06/28 04:08:32;;;;;;;6.80;4.70;;;;;;;19.50;56.11;101781.63;4993538;28;118729;-75
2023/06/28 04:10:59;;;;;;;8.45;5.22;;;;;;;19.50;56.46;101781.63;4993103;28;124093;-75
2023/06/28 04:13:26;;;;;;;8.07;4.72;;;;;;;19.50;56.44;101787.00;4969437;28;123171;-75
2023/06/28 04:15:54;;;;;;;9.27;4.30;;;;;;;19.51;56.46;101772.59;4990361;28;119732;-75
2023/06/28 04:18:21;;;;;;;7.03;4.35;;;;;;;19.52;56.40;101774.31;4990704;28;118791;-75
2023/06/28 04:20:48;;;;;;;7.35;4.55;;;;;;;19.52;56.69;101785.06;4971420;28;124949;-75
2023/06/28 04:23:16;;;;;;;11.13;4.43;;;;;;;19.52;56.53;101779.69;4972001;28;123994;-77
2023/06/28 04:25:44;;;;;;;7.03;4.32;;;;;;;19.51;56.38;101777.97;4989267;28;120115;-75
2023/06/28 04:28:11;;;;;;;7.35;4.78;;;;;;;19.50;56.41;101787.00;4985334;28;119097;-76
2023/06/28 04:30:38;;;;;;;9.55;4.55;;;;;;;19.48;56.39;101780.88;5001781;28;123919;-76
2023/06/28 04:33:05;;;;;;;6.93;4.43;;;;;;;19.48;56.60;101788.06;5001896;28;122973;-76
2023/06/28 04:35:34;;;;;;;9.60;5.13;;;;;;;19.47;56.53;101787.19;4989271;28;118674;-76
2023/06/28 04:38:03;;;;;;;9.85;4.63;;;;;;;19.47;56.26;101789.88;4989641;28;119313;-75
2023/06/28 04:40:32;;;;;;;9.50;4.63;;;;;;;19.50;56.78;101783.47;4994057;28;123823;-75
2023/06/28 04:43:00;;;;;;;8.75;4.90;;;;;;;19.50;56.68;101792.38;4987956;28;123071;-75
2023/06/28 04:45:36;;;;;;;7.85;4.95;;;;;;;19.51;56.56;101777.97;4993591;28;119211;-76
2023/06/28 04:48:08;;;;;;;8.25;4.53;;;;;;;19.52;56.61;101793.13;4979931;28;117838;-75
2023/06/28 04:50:37;;;;;;;6.60;4.55;;;;;;;19.50;56.81;101787.00;4987684;28;124178;-75
2023/06/28 04:53:05;;;;;;;7.95;4.63;;;;;;;19.50;56.88;101787.00;4978483;28;125249;-75
2023/06/28 04:55:34;;;;;;;8.20;4.50;;;;;;;19.52;57.00;101794.97;4995670;28;118948;-74
2023/06/28 04:58:03;;;;;;;9.80;5.13;;;;;;;19.54;56.99;101796.56;4954779;28;118623;-75
2023/06/28 05:00:32;;;;;;;7.18;4.18;;;;;;;19.55;56.84;101790.25;4975994;28;123734;-75
2023/06/28 05:03:00;;;;;;;10.07;4.97;;;;;;;19.54;56.88;101788.50;4993043;28;123920;-75
2023/06/28 05:05:29;;;;;;;8.32;4.60;;;;;;;19.55;56.98;101790.25;4976684;28;118569;-75
2023/06/28 05:07:56;;;;;;;6.88;4.35;;;;;;;19.54;56.85;101788.50;4989601;28;119412;-76
2023/06/28 05:10:24;;;;;;;8.20;4.63;;;;;;;19.55;57.00;101787.56;4988594;28;124589;-75
2023/06/28 05:12:51;;;;;;;8.43;4.78;;;;;;;19.55;56.92;101784.88;4988284;28;123966;-75
2023/06/28 05:15:19;;;;;;;8.63;4.82;;;;;;;19.53;56.61;101781.41;4988211;28;120607;-75
2023/06/28 05:17:47;;;;;;;6.88;4.38;;;;;;;19.49;56.90;101785.25;4988707;28;120357;-75
2023/06/28 05:20:14;;;;;;;8.05;4.43;;;;;;;19.46;56.87;101785.50;5000950;28;124653;-75
2023/06/28 05:22:49;;;;;;;12.35;5.30;;;;;;;19.41;56.94;101787.63;4982019;28;122771;-75
2023/06/28 05:25:16;;;;;;;5.75;4.35;;;;;;;19.39;56.54;101784.19;4980357;28;118376;-75
2023/06/28 05:27:43;;;;;;;6.80;4.07;;;;;;;19.37;56.87;101783.44;4993869;28;118651;-74
2023/06/28 05:30:11;;;;;;;8.20;4.60;;;;;;;19.37;56.64;101791.47;4969638;28;122985;-75
2023/06/28 05:32:38;;;;;;;6.28;4.28;;;;;;;19.35;56.91;101788.03;4989022;28;124666;-75
2023/06/28 05:35:06;;;;;;;8.88;4.57;;;;;;;19.35;56.88;101790.72;4988912;28;119002;-75
2023/06/28 05:37:33;;;;;;;8.45;4.70;;;;;;;19.35;57.02;101790.72;4989107;28;119821;-75
2023/06/28 05:40:00;;;;;;;7.93;4.03;;;;;;;19.36;56.93;101789.75;4988577;28;124024;-75
2023/06/28 05:42:27;;;;;;;6.80;4.10;;;;;;;19.37;57.08;101796.84;4971758;28;124529;-74
2023/06/28 05:44:54;;;;;;;7.60;4.50;;;;;;;19.38;57.10;101788.69;4970275;28;120832;-75
2023/06/28 05:47:21;;;;;;;12.90;4.78;;;;;;;19.43;57.20;101791.06;4970517;28;118796;-74
2023/06/28 05:49:56;;;;;;;9.20;4.20;;;;;;;19.46;57.34;101790.88;4994000;28;124451;-75
2023/06/28 05:52:27;;;;;;;9.82;4.45;;;;;;;19.48;57.24;101788.94;4983873;28;124501;-74
2023/06/28 05:54:54;;;;;;;6.13;4.22;;;;;;;19.51;57.38;101777.97;4992599;28;118247;-75
2023/06/28 05:57:21;;;;;;;9.45;4.85;;;;;;;19.53;57.19;101781.41;4990978;28;118190;-75
2023/06/28 05:59:49;;;;;;;7.57;4.35;;;;;;;19.54;57.37;101783.13;4973442;28;123703;-75
2023/06/28 06:02:16;;;;;;;7.85;4.82;;;;;;;19.56;57.27;101786.56;4970787;28;123817;-74
2023/06/28 06:04:43;;;;;;;7.82;4.32;;;;;;;19.56;57.29;101781.19;4988160;28;119551;-75
2023/06/28 06:07:10;;;;;;;6.53;4.28;;;;;;;19.58;57.37;101784.63;4969726;28;118536;-74
2023/06/28 06:09:37;;;;;;;7.60;4.72;;;;;;;19.60;57.43;101787.22;4974502;28;124372;-75
2023/06/28 06:12:05;;;;;;;7.95;4.97;;;;;;;19.62;57.55;101786.16;4982516;28;123056;-76
2023/06/28 06:14:33;;;;;;;10.80;4.88;;;;;;;19.64;57.73;101778.84;4991889;28;118385;-76
2023/06/28 06:17:00;;;;;;;6.85;4.35;;;;;;;19.67;57.54;101779.63;4991504;28;119876;-76
2023/06/28 06:19:27;;;;;;;8.82;4.80;;;;;;;19.70;57.89;101777.56;4991172;28;125208;-76
2023/06/28 06:21:54;;;;;;;10.35;5.10;;;;;;;19.74;57.65;101778.25;4987922;28;123539;-76
2023/06/28 06:24:22;;;;;;;9.82;4.78;;;;;;;19.77;57.85;101780.72;4969790;28;119401;-75
2023/06/28 06:26:49;;;;;;;7.88;4.78;;;;;;;19.79;57.65;101781.47;4988495;28;119444;-77
2023/06/28 06:29:16;;;;;;;7.70;4.70;;;;;;;19.81;57.89;101784.94;4970052;28;124566;-76
2023/06/28 06:31:43;;;;;;;11.10;4.60;;;;;;;19.82;57.88;101783.97;4986054;28;124490;-76
2023/06/28 06:34:10;;;;;;;6.32;4.47;;;;;;;19.82;57.98;101786.66;4969896;28;119094;-76
2023/06/28 06:36:37;;;;;;;11.07;5.05;;;;;;;19.83;57.83;101788.38;4987937;28;119510;-76
2023/06/28 06:39:04;;;;;;;8.50;4.93;;;;;;;19.85;57.82;101786.44;4969812;28;123906;-76
2023/06/28 06:41:31;;;;;;;10.40;4.78;;;;;;;19.85;57.79;101783.75;4987016;28;123562;-76
2023/06/28 06:43:59;;;;;;;11.07;5.60;;;;;;;19.86;57.76;101785.47;4986944;28;119723;-76
2023/06/28 06:46:26;;;;;;;9.80;4.88;;;;;;;19.89;57.76;101782.59;5000522;28;118983;-76
2023/06/28 06:48:54;;;;;;;10.65;5.13;;;;;;;19.92;58.10;101787.72;4987929;28;124277;-76
2023/06/28 06:51:22;;;;;;;10.18;5.18;;;;;;;19.97;58.13;101796.34;4987592;28;124253;-76
2023/06/28 06:53:49;;;;;;;8.75;5.30;;;;;;;20.01;57.67;101792.47;4990366;28;120993;-76
2023/06/28 06:56:21;;;;;;;8.20;4.72;;;;;;;20.03;57.94;101785.16;4989444;28;119886;-76
2023/06/28 06:58:49;;;;;;;8.73;5.15;;;;;;;20.10;58.21;101784.72;4987097;28;124715;-76
2023/06/28 07:01:16;;;;;;;11.18;5.30;;;;;;;20.14;58.09;101784.41;4986816;28;124040;-76
2023/06/28 07:03:43;;;;;;;8.88;5.45;;;;;;;20.19;58.04;101784.94;4972394;28;119188;-76
2023/06/28 07:06:11;;;;;;;9.05;5.35;;;;;;;20.25;58.30;101786.34;4995833;28;119046;-76
2023/06/28 07:08:38;;;;;;;8.02;5.43;;;;;;;20.31;58.18;101783.22;4987317;28;124790;-76
2023/06/28 07:11:06;;;;;;;10.40;5.72;;;;;;;20.34;58.01;101793.75;4966346;28;123185;-76
2023/06/28 07:13:33;;;;;;;8.52;5.05;;;;;;;20.39;58.24;101791.59;4995585;28;119460;-76
2023/06/28 07:16:00;;;;;;;9.80;5.18;;;;;;;20.46;57.92;101791.16;4991777;28;118725;-76
2023/06/28 07:18:27;;;;;;;8.75;5.13;;;;;;;20.47;57.85;101787.50;4979266;28;123783;-76
2023/06/28 07:20:57;;;;;;;9.85;5.43;;;;;;;20.51;57.93;101783.59;4989100;28;125520;-76
2023/06/28 07:23:24;;;;;;;11.48;5.97;;;;;;;20.56;57.91;101786.81;4968796;28;118522;-76
2023/06/28 07:25:52;;;;;;;10.07;5.28;;;;;;;20.60;58.01;101788.34;4984796;28;119398;-75
2023/06/28 07:28:19;;;;;;;8.57;5.40;;;;;;;20.66;57.82;101793.28;4980996;28;124278;-76
2023/06/28 07:30:53;;;;;;;11.30;5.18;;;;;;;20.69;57.53;101787.69;4986103;28;123958;-76
2023/06/28 07:33:22;;;;;;;9.98;4.97;;;;;;;20.69;57.54;101782.31;4986887;28;119278;-76
2023/06/28 07:35:50;;;;;;;9.35;5.40;;;;;;;20.71;57.41;101787.59;4986747;28;119018;-75
2023/06/28 07:38:21;;;;;;;10.35;5.32;;;;;;;20.72;57.50;101778.50;4968732;28;122982;-75
2023/06/28 07:40:49;;;;;;;8.15;5.68;;;;;;;20.74;57.49;101780.16;4986835;28;123772;-74
2023/06/28 07:43:18;;;;;;;7.50;5.40;;;;;;;20.76;57.49;101783.56;4987372;28;119261;-74
2023/06/28 07:45:45;;;;;;;11.77;5.78;;;;;;;20.77;57.50;101779.91;4988976;28;120225;-75
2023/06/28 07:48:12;;;;;;;10.60;5.57;;;;;;;20.80;57.48;101779.69;4986994;28;123600;-74
2023/06/28 07:50:40;;;;;;;10.25;5.60;;;;;;;20.80;57.38;101779.69;4972134;28;125130;-74
2023/06/28 07:53:08;;;;;;;9.05;5.07;;;;;;;20.85;57.55;101781.16;4972055;28;119175;-75
2023/06/28 07:55:35;;;;;;;9.43;5.32;;;;;;;20.89;57.52;101788.03;4989879;28;120006;-75
2023/06/28 07:58:02;;;;;;;7.35;5.80;;;;;;;20.94;57.39;101785.88;4989916;28;123641;-74
2023/06/28 08:00:31;;;;;;;8.23;5.50;;;;;;;20.96;57.31;101790.19;4971500;28;123219;-75
2023/06/28 08:02:58;;;;;;;8.15;5.28;;;;;;;20.98;57.30;101792.75;4972354;28;119466;-76
2023/06/28 08:05:26;;;;;;;9.45;5.57;;;;;;;21.03;57.39;101795.97;4971374;28;121575;-76
2023/06/28 08:07:56;;;;;;;12.05;5.80;;;;;;;21.07;57.42;101792.06;4964409;28;122883;-75
2023/06/28 08:10:25;;;;;;;12.13;5.50;;;;;;;21.09;57.29;101795.50;4966081;28;124127;-76
2023/06/28 08:12:55;;;;;;;8.20;5.40;;;;;;;21.12;57.19;101795.28;4981166;28;119069;-76
2023/06/28 08:15:22;;;;;;;10.70;5.32;;;;;;;21.16;57.16;101786.00;4988154;28;118413;-76
2023/06/28 08:17:49;;;;;;;7.60;4.78;;;;;;;21.17;56.90;101787.75;4982883;28;124907;-76
2023/06/28 08:20:17;;;;;;;9.15;5.28;;;;;;;21.19;57.15;101779.50;4972844;28;124097;-76
2023/06/28 08:22:44;;;;;;;17.40;5.30;;;;;;;21.24;56.97;101787.25;4988488;28;119684;-76
2023/06/28 08:25:11;;;;;;;9.13;5.28;;;;;;;21.27;56.81;101787.06;4971214;28;117490;-75
2023/06/28 08:27:39;;;;;;;8.45;5.40;;;;;;;21.32;56.71;101792.94;4969080;28;124701;-75
2023/06/28 08:30:06;;;;;;;10.00;5.47;;;;;;;21.35;56.57;101784.63;4969394;28;124091;-77
2023/06/28 08:32:35;;;;;;;9.90;5.43;;;;;;;21.39;56.80;101786.09;4988747;28;120952;-75
2023/06/28 08:35:04;;;;;;;10.57;5.60;;;;;;;21.44;56.77;101783.97;4971005;28;119259;-75
2023/06/28 08:37:34;;;;;;;11.70;6.30;;;;;;;21.49;56.79;101781.78;4984033;28;124753;-75
2023/06/28 08:40:01;;;;;;;13.85;5.90;;;;;;;21.56;56.88;101793.78;4985170;28;125323;-76
2023/06/28 08:42:29;;;;;;;13.05;5.57;;;;;;;21.64;56.65;101784.25;4974772;28;118155;-75
2023/06/28 08:44:59;;;;;;;10.65;5.45;;;;;;;21.69;56.51;101782.06;4996647;28;119392;-75
2023/06/28 08:47:30;;;;;;;9.20;5.32;;;;;;;21.74;56.43;101785.28;4967724;28;124002;-76
2023/06/28 08:49:58;;;;;;;9.73;5.28;;;;;;;21.79;56.22;101785.75;4986193;28;123705;-75
2023/06/28 08:52:27;;;;;;;12.32;5.57;;;;;;;21.83;56.11;101784.56;4986346;28;120250;-75
2023/06/28 08:54:57;;;;;;;8.98;5.68;;;;;;;21.86;56.13;101781.63;4982654;28;119042;-75
2023/06/28 08:57:24;;;;;;;7.88;4.97;;;;;;;21.88;55.82;101776.97;4955005;28;125556;-76
2023/06/28 08:59:52;;;;;;;11.30;5.57;;;;;;;21.91;55.65;101782.13;4986139;28;123231;-76
2023/06/28 09:02:20;;;;;;;10.55;5.75;;;;;;;21.93;55.77;101785.56;4989009;28;119222;-76
2023/06/28 09:04:48;;;;;;;9.48;5.88;;;;;;;21.96;55.77;101782.63;4959045;28;120026;-75
2023/06/28 09:07:18;;;;;;;10.02;5.68;;;;;;;21.97;55.53;101780.78;4970744;28;123077;-75
2023/06/28 09:09:48;;;;;;;11.93;6.00;;;;;;;21.98;55.56;101782.47;4988939;28;123938;-76
2023/06/28 09:12:16;;;;;;;9.18;5.50;;;;;;;22.01;55.67;101781.41;4961099;28;118288;-76
2023/06/28 09:14:44;;;;;;;13.50;6.18;;;;;;;22.05;55.80;101785.56;4969336;28;118638;-76
2023/06/28 09:17:11;;;;;;;10.43;5.90;;;;;;;22.08;55.71;101783.50;4988422;28;124452;-76
2023/06/28 09:19:38;;;;;;;13.18;5.90;;;;;;;22.12;55.85;101778.72;4988779;28;124216;-76
2023/06/28 09:22:08;;;;;;;10.32;6.15;;;;;;;22.14;55.71;101776.75;4974860;28;120797;-75
2023/06/28 09:24:36;;;;;;;11.75;6.18;;;;;;;22.18;55.58;101775.53;4997689;28;120536;-75
2023/06/28 09:27:05;;;;;;;11.52;5.43;;;;;;;22.21;55.68;101777.09;4982670;28;123861;-75
2023/06/28 09:29:34;;;;;;;12.27;5.88;;;;;;;22.26;55.69;101775.78;4967943;28;122376;-75
2023/06/28 09:32:01;;;;;;;14.52;5.93;;;;;;;22.30;55.67;101774.59;4987332;28;119761;-75
2023/06/28 09:34:28;;;;;;;12.02;5.90;;;;;;;22.35;55.60;101775.06;4967664;28;119128;-74
2023/06/28 09:36:57;;;;;;;11.27;5.63;;;;;;;22.42;55.82;101777.28;4969089;28;123624;-75
2023/06/28 09:39:27;;;;;;;11.60;6.07;;;;;;;22.47;55.33;101777.75;4970530;28;123931;-75
2023/06/28 09:41:54;;;;;;;14.32;5.75;;;;;;;22.52;55.29;101770.16;4980435;28;118777;-75
2023/06/28 09:44:29;;;;;;;12.90;6.00;;;;;;;22.58;55.10;101774.19;4967993;28;119911;-75
2023/06/28 09:47:01;;;;;;;9.48;5.75;;;;;;;22.62;55.05;101781.94;4983450;28;124406;-75
2023/06/28 09:49:29;;;;;;;12.77;5.90;;;;;;;22.67;55.00;101779.69;4984768;28;123838;-75
2023/06/28 09:52:02;;;;;;;12.48;6.13;;;;;;;22.74;55.02;101782.78;4994419;28;119255;-75
2023/06/28 09:54:35;;;;;;;10.35;5.63;;;;;;;22.81;55.12;101775.88;4985200;28;119494;-75
2023/06/28 09:57:03;;;;;;;9.25;5.82;;;;;;;22.90;54.88;101776.94;4974312;28;125476;-74
2023/06/28 09:59:34;;;;;;;11.45;5.72;;;;;;;22.95;54.44;101782.84;4971830;28;123202;-76
2023/06/28 10:02:08;;;;;;;9.93;6.00;;;;;;;23.00;54.09;101769.81;4970354;28;120309;-75
2023/06/28 10:04:39;;;;;;;9.18;5.75;;;;;;;23.03;54.11;101774.97;4987380;28;118844;-75
2023/06/28 10:07:09;;;;;;;11.57;5.93;;;;;;;23.09;54.16;101779.91;4976363;28;122272;-75
2023/06/28 10:09:38;;;;;;;10.88;5.47;;;;;;;23.16;54.05;101773.97;4986102;28;123941;-75
2023/06/28 10:12:10;;;;;;;10.48;5.10;;;;;;;23.23;53.75;101769.78;4986276;28;120040;-75
2023/06/28 10:14:41;;;;;;;11.95;5.55;;;;;;;23.28;53.73;101772.91;4965239;28;118194;-75
2023/06/28 10:17:09;;;;;;;11.98;6.00;;;;;;;23.36;53.26;101762.34;4987798;28;123854;-74
2023/06/28 10:19:37;;;;;;;13.88;6.00;;;;;;;23.40;53.17;101766.50;4987841;28;124360;-75
2023/06/28 10:22:05;;;;;;;11.35;5.45;;;;;;;23.42;52.77;101764.50;4987269;28;118550;-74
2023/06/28 10:24:35;;;;;;;10.10;5.75;;;;;;;23.42;52.87;101769.91;4977197;28;119227;-74
2023/06/28 10:27:05;;;;;;;9.55;5.40;;;;;;;23.46;52.84;101765.97;4974405;28;123270;-73
2023/06/28 10:29:33;;;;;;;11.18;5.68;;;;;;;23.50;52.66;101764.69;4990206;28;123692;-75
2023/06/28 10:32:01;;;;;;;10.23;5.40;;;;;;;23.55;52.47;101764.31;4979901;28;121263;-75
2023/06/28 10:34:30;;;;;;;8.95;4.88;;;;;;;23.59;52.42;101759.50;4988729;28;119537;-75
2023/06/28 10:36:58;;;;;;;11.18;5.47;;;;;;;23.63;52.38;101755.56;4970011;28;123901;-74
2023/06/28 10:39:25;;;;;;;9.73;5.15;;;;;;;23.70;52.07;101762.16;5001265;28;123894;-74
2023/06/28 10:41:56;;;;;;;11.65;5.40;;;;;;;23.73;52.09;101761.88;4971948;28;118838;-74
2023/06/28 10:44:24;;;;;;;10.18;5.05;;;;;;;23.79;51.99;101755.97;4968547;28;119058;-74
2023/06/28 10:47:09;;;;;;;12.20;5.15;;;;;;;23.88;51.92;101760.59;4984457;28;124357;-74
2023/06/28 10:49:39;;;;;;;12.38;5.80;;;;;;;23.97;51.50;101763.47;4978859;28;124610;-75
2023/06/28 10:52:14;;;;;;;9.82;5.30;;;;;;;24.06;51.52;101751.84;4980325;28;119642;-74
2023/06/28 10:54:42;;;;;;;;;;;;;;;24.13;51.92;101753.03;4976764;28;118528;-75
2023/06/28 10:57:14;;;;;;;13.77;5.05;;;;;;;24.27;51.79;101749.94;4980798;28;124350;-77
2023/06/28 10:59:42;;;;;;;9.88;5.68;;;;;;;24.38;51.23;101750.84;4978364;28;123744;-77
2023/06/28 11:02:09;;;;;;;11.65;5.20;;;;;;;24.49;51.34;101754.28;4982569;28;121851;-78
2023/06/28 11:04:51;;;;;;;11.13;5.45;;;;;;;24.61;51.05;101746.94;4975174;28;119831;-77
2023/06/28 11:07:23;;;;;;;8.70;4.80;;;;;;;24.75;50.74;101747.53;4966896;28;122973;-76
2023/06/28 11:10:14;;;;;;;9.05;5.28;;;;;;;24.85;50.70;101749.25;4984640;28;124195;-77
2023/06/28 11:12:45;;;;;;;10.00;5.15;;;;;;;24.98;50.34;101746.28;4980284;28;119036;-75
2023/06/28 11:15:13;;;;;;;10.57;5.78;;;;;;;25.10;49.79;101741.59;4970799;28;119947;-75
2023/06/28 11:17:40;;;;;;;10.35;4.97;;;;;;;25.20;49.57;101738.88;4986146;28;124344;-74
2023/06/28 11:20:14;;;;;;;9.85;4.80;;;;;;;25.27;49.43;101736.47;4966463;28;124357;-74